Time;durP1;ratioP1;P1;durP2;ratioP2;P2;SDS_P1;SDS_P2;PMS_P1;PMS_P2;Temp;Humidity;BMP_temperature;BMP_pressure;BME280_temperature;BME280_humidity;BME280_pressure;Samples;Min_cycle;Max_cycle;Signal;HPM_P1;HPM_P2
2022/01/18 00:01:12;;;;;;;46.30;40.60;;;4.30;99.90;;;;;;4996355;28;20061;-82
2022/01/18 00:03:39;;;;;;;45.97;41.33;;;4.30;99.90;;;;;;4997198;28;20031;-81
2022/01/18 00:06:06;;;;;;;46.17;41.08;;;4.40;99.90;;;;;;4998279;28;20030;-82
2022/01/18 00:08:32;;;;;;;42.53;38.15;;;4.30;99.90;;;;;;5000564;28;20030;-82
2022/01/18 00:10:59;;;;;;;45.03;40.13;;;4.30;99.90;;;;;;4999722;28;20491;-82
2022/01/18 00:13:49;;;;;;;45.95;40.90;;;4.30;99.90;;;;;;4996599;28;20053;-82
2022/01/18 00:19:11;;;;;;;41.40;36.92;;;4.30;99.90;;;;;;4944982;28;20043;-82
2022/01/18 00:24:24;;;;;;;45.47;39.80;;;4.30;99.90;;;;;;4996384;28;20118;-82
2022/01/18 00:26:50;;;;;;;44.00;38.97;;;4.20;99.90;;;;;;4996420;28;20448;-81
2022/01/18 00:29:19;;;;;;;44.08;38.72;;;4.20;99.90;;;;;;4994916;28;20050;-82
2022/01/18 00:32:12;;;;;;;52.05;41.67;;;4.10;99.90;;;;;;4994364;28;20047;-81
2022/01/18 00:34:35;;;;;;;44.60;40.08;;;4.10;99.90;;;;;;4995541;28;20050;-82
2022/01/18 00:39:36;;;;;;;52.33;42.33;;;4.10;99.90;;;;;;4995582;28;20050;-82
2022/01/18 00:42:04;;;;;;;49.45;44.00;;;4.10;99.90;;;;;;4994697;28;20145;-83
2022/01/18 00:44:30;;;;;;;43.75;38.70;;;4.00;99.90;;;;;;4994254;28;20050;-82
2022/01/18 00:46:57;;;;;;;49.45;41.90;;;4.00;99.90;;;;;;4994700;28;20031;-83
2022/01/18 00:49:26;;;;;;;50.35;43.83;;;4.00;99.90;;;;;;4994901;28;20034;-82
2022/01/18 00:51:56;;;;;;;52.08;43.13;;;4.00;99.90;;;;;;4995799;28;20038;-83
2022/01/18 00:54:28;;;;;;;47.90;42.22;;;4.00;99.90;;;;;;4995448;28;20371;-82
2022/01/18 00:56:55;;;;;;;48.20;42.03;;;4.00;99.90;;;;;;4995320;28;20037;-83
2022/01/18 00:59:22;;;;;;;49.72;42.35;;;4.00;99.90;;;;;;4995197;28;20403;-81
2022/01/18 01:01:49;;;;;;;51.20;45.75;;;4.00;99.90;;;;;;4995895;28;20030;-82
2022/01/18 01:04:15;;;;;;;48.20;42.47;;;4.00;99.90;;;;;;4995522;28;20034;-82
2022/01/18 01:06:42;;;;;;;44.00;39.47;;;4.00;99.90;;;;;;4978559;28;20046;-81
2022/01/18 01:09:08;;;;;;;46.00;41.20;;;4.00;99.90;;;;;;4996259;28;20079;-82
2022/01/18 01:11:37;;;;;;;44.92;40.40;;;4.00;99.90;;;;;;4995620;28;20054;-82
2022/01/18 01:14:06;;;;;;;46.13;40.15;;;4.00;99.90;;;;;;4977290;28;20069;-83
2022/01/18 01:19:29;;;;;;;48.40;42.05;;;4.10;99.90;;;;;;4994185;28;20034;-85
2022/01/18 01:36:32;;;;;;;49.67;44.17;;;4.00;99.90;;;;;;4971807;28;20035;-82
2022/01/18 01:42:02;;;;;;;47.72;42.15;;;4.00;99.90;;;;;;4994779;28;20038;-82
2022/01/18 01:44:46;;;;;;;55.97;43.50;;;4.00;99.90;;;;;;4994482;28;20034;-82
2022/01/18 01:47:18;;;;;;;46.97;42.15;;;3.90;99.90;;;;;;4991876;28;20043;-82
2022/01/18 01:49:48;;;;;;;47.72;42.00;;;3.90;99.90;;;;;;4994645;28;20038;-82
2022/01/18 01:52:15;;;;;;;56.22;45.08;;;3.90;99.90;;;;;;4993761;28;20045;-82
2022/01/18 01:54:42;;;;;;;50.13;41.88;;;3.90;99.90;;;;;;4993896;28;20030;-82
2022/01/18 01:57:09;;;;;;;52.50;42.05;;;3.90;99.90;;;;;;4993243;28;20034;-82
2022/01/18 01:59:36;;;;;;;49.50;42.55;;;4.00;99.90;;;;;;4994142;28;20030;-82
2022/01/18 02:02:03;;;;;;;49.58;42.78;;;3.90;99.90;;;;;;4993267;28;20053;-86
2022/01/18 02:04:30;;;;;;;50.65;42.33;;;3.90;99.90;;;;;;4993060;28;20042;-79
2022/01/18 02:06:56;;;;;;;47.13;42.00;;;4.00;99.90;;;;;;4994242;28;20041;-80
2022/01/18 02:09:22;;;;;;;46.20;41.00;;;3.90;99.90;;;;;;4992631;28;20515;-80
2022/01/18 02:11:50;;;;;;;56.78;47.25;;;4.00;99.90;;;;;;4993868;28;20042;-80
2022/01/18 02:14:20;;;;;;;132.80;105.45;;;4.00;99.90;;;;;;4993124;28;20031;-80
2022/01/18 02:22:20;;;;;;;203.85;155.60;;;4.00;99.90;;;;;;4992331;28;20042;-80
2022/01/18 02:24:46;;;;;;;50.47;44.80;;;4.00;99.90;;;;;;4993223;28;20050;-80
2022/01/18 02:27:13;;;;;;;872.08;744.63;;;4.00;99.90;;;;;;4992662;28;20361;-80
2022/01/18 02:29:40;;;;;;;223.27;173.63;;;4.00;99.90;;;;;;4993308;28;20034;-81
2022/01/18 02:32:07;;;;;;;87.93;74.13;;;4.00;99.90;;;;;;4991200;28;20042;-80
2022/01/18 02:34:34;;;;;;;114.75;93.00;;;4.00;99.90;;;;;;4993491;28;20030;-80
2022/01/18 02:37:03;;;;;;;132.68;118.07;;;4.10;99.90;;;;;;4992178;28;20472;-81
2022/01/18 02:39:30;;;;;;;53.92;47.00;;;4.10;99.90;;;;;;4992404;28;20491;-80
2022/01/18 02:42:03;;;;;;;48.70;43.80;;;4.10;99.90;;;;;;4993882;28;20045;-80
2022/01/18 02:44:31;;;;;;;43.55;39.28;;;4.10;99.90;;;;;;4993658;28;20026;-80
2022/01/18 02:46:58;;;;;;;66.38;55.22;;;4.10;99.90;;;;;;4992203;28;20043;-80
2022/01/18 02:49:25;;;;;;;53.70;48.33;;;4.10;99.90;;;;;;4992577;28;20034;-80
2022/01/18 02:51:53;;;;;;;44.63;39.90;;;4.10;99.90;;;;;;4993363;28;20046;-81
2022/01/18 02:54:19;;;;;;;57.08;50.92;;;4.10;99.90;;;;;;4993539;28;20137;-80
2022/01/18 02:56:55;;;;;;;62.92;56.30;;;4.10;99.90;;;;;;4993941;28;20049;-80
2022/01/18 03:05:12;;;;;;;47.10;41.72;;;4.10;99.90;;;;;;4992200;28;20042;-80
2022/01/18 03:07:40;;;;;;;72.45;65.40;;;4.10;99.90;;;;;;4975564;28;20034;-81
2022/01/18 03:10:08;;;;;;;50.60;45.10;;;4.10;99.90;;;;;;4991750;28;20384;-84
2022/01/18 03:12:34;;;;;;;52.80;40.20;;;4.00;99.90;;;;;;4993092;28;20039;-80
2022/01/18 03:15:00;;;;;;;41.55;37.55;;;4.10;99.90;;;;;;4993520;28;20041;-80
2022/01/18 03:17:26;;;;;;;43.42;38.75;;;4.00;99.90;;;;;;4991496;28;20528;-80
2022/01/18 03:19:52;;;;;;;44.53;39.63;;;4.10;99.90;;;;;;4993700;28;20129;-80
2022/01/18 03:22:19;;;;;;;47.53;39.95;;;4.10;99.90;;;;;;4993531;28;20038;-80
2022/01/18 03:24:59;;;;;;;40.47;36.55;;;4.00;99.90;;;;;;4995097;28;20076;-80
2022/01/18 03:30:11;;;;;;;43.55;38.08;;;4.10;99.90;;;;;;4992143;28;20046;-80
2022/01/18 03:32:37;;;;;;;43.88;39.55;;;4.00;99.90;;;;;;4991537;28;20045;-79
2022/01/18 03:35:06;;;;;;;46.78;41.65;;;4.10;99.90;;;;;;4992618;28;20034;-83
2022/01/18 03:37:33;;;;;;;43.47;38.85;;;4.10;99.90;;;;;;4990799;28;20039;-80
2022/01/18 03:39:59;;;;;;;46.80;41.80;;;4.10;99.90;;;;;;4992342;28;20030;-80
2022/01/18 03:42:42;;;;;;;48.03;41.58;;;4.10;99.90;;;;;;4991615;28;20118;-80
2022/01/18 03:45:14;;;;;;;49.50;44.45;;;4.10;99.90;;;;;;4990881;28;20042;-86
2022/01/18 03:47:41;;;;;;;45.55;40.85;;;4.10;99.90;;;;;;4992921;28;20039;-80
2022/01/18 03:50:10;;;;;;;47.72;40.53;;;4.10;99.90;;;;;;4993847;28;20030;-86
2022/01/18 03:52:37;;;;;;;59.33;43.17;;;4.00;99.90;;;;;;4997662;28;20383;-80
2022/01/18 03:55:04;;;;;;;45.30;40.58;;;4.00;99.90;;;;;;4998462;28;20030;-80
2022/01/18 03:57:31;;;;;;;50.17;42.28;;;4.00;99.90;;;;;;4997302;28;20444;-80
2022/01/18 03:59:57;;;;;;;44.85;40.22;;;4.00;99.90;;;;;;4997742;28;20073;-80
2022/01/18 04:02:23;;;;;;;46.60;41.13;;;4.00;99.90;;;;;;4995072;28;20038;-80
2022/01/18 04:04:50;;;;;;;43.92;39.42;;;4.00;99.90;;;;;;4996652;28;20038;-80
2022/01/18 04:07:16;;;;;;;46.13;38.65;;;4.10;99.90;;;;;;4994943;28;20031;-80
2022/01/18 04:09:42;;;;;;;46.70;41.95;;;4.00;99.90;;;;;;4995546;28;20038;-80
2022/01/18 04:12:09;;;;;;;47.72;42.50;;;4.00;99.90;;;;;;4994874;28;20042;-85
2022/01/18 04:14:35;;;;;;;49.78;41.33;;;4.10;99.90;;;;;;4995469;28;20038;-80
2022/01/18 04:27:39;;;;;;;44.85;40.03;;;4.10;99.90;;;;;;4994853;28;20038;-80
2022/01/18 04:30:06;;;;;;;44.25;39.78;;;4.10;99.90;;;;;;4994781;28;20034;-80
2022/01/18 04:32:33;;;;;;;43.38;38.83;;;4.00;99.90;;;;;;4994294;28;20031;-80
2022/01/18 04:34:59;;;;;;;47.47;42.45;;;4.10;99.90;;;;;;4994992;28;20037;-80
2022/01/18 04:37:25;;;;;;;47.35;42.60;;;4.10;99.90;;;;;;4994262;28;20030;-80
2022/01/18 04:39:51;;;;;;;45.53;40.67;;;4.00;99.90;;;;;;4995345;28;20030;-80
2022/01/18 04:43:11;;;;;;;47.28;42.33;;;4.10;99.90;;;;;;4994409;28;20045;-80
2022/01/18 04:50:34;;;;;;;50.65;44.92;;;4.00;99.90;;;;;;4994244;28;20042;-80
2022/01/18 04:53:00;;;;;;;52.00;41.70;;;4.00;99.90;;;;;;4993477;28;20465;-80
2022/01/18 04:55:31;;;;;;;45.63;40.65;;;4.00;99.90;;;;;;4992704;28;20034;-80
2022/01/18 04:57:58;;;;;;;53.97;43.35;;;4.00;99.90;;;;;;4994583;28;20400;-80
2022/01/18 05:00:25;;;;;;;48.30;43.42;;;4.00;99.90;;;;;;4993735;28;20053;-80
2022/01/18 05:02:53;;;;;;;46.47;41.03;;;4.00;99.90;;;;;;4991829;28;20046;-80
2022/01/18 05:05:28;;;;;;;46.67;40.78;;;4.00;99.90;;;;;;4993732;28;20468;-80
2022/01/18 05:08:00;;;;;;;47.83;38.75;;;4.00;99.90;;;;;;4994210;28;20463;-80
2022/01/18 05:10:29;;;;;;;45.65;40.80;;;4.00;99.90;;;;;;4993264;28;20046;-80
2022/01/18 05:12:57;;;;;;;46.45;41.50;;;4.00;99.90;;;;;;4994341;28;20030;-80
2022/01/18 05:21:11;;;;;;;45.47;40.55;;;4.00;99.90;;;;;;4983723;28;20534;-80
2022/01/18 05:23:37;;;;;;;44.42;38.78;;;4.00;99.90;;;;;;4993955;28;20050;-80
2022/01/18 05:26:04;;;;;;;48.78;41.15;;;4.00;99.90;;;;;;4999353;28;20038;-81
2022/01/18 05:28:30;;;;;;;45.22;40.70;;;4.00;99.90;;;;;;4994046;28;20371;-80
2022/01/18 05:30:56;;;;;;;51.63;45.72;;;3.90;99.90;;;;;;4992824;28;20486;-80
2022/01/18 05:33:23;;;;;;;49.80;44.72;;;3.90;99.90;;;;;;4993196;28;20065;-80
2022/01/18 05:35:49;;;;;;;51.25;44.08;;;3.90;99.90;;;;;;4994003;28;20022;-80
2022/01/18 05:38:16;;;;;;;56.30;44.25;;;4.00;99.90;;;;;;4993432;28;20042;-81
2022/01/18 05:40:42;;;;;;;50.10;42.92;;;4.00;99.90;;;;;;4994501;28;20045;-80
2022/01/18 05:43:08;;;;;;;44.75;39.88;;;4.00;99.90;;;;;;5000996;28;20041;-81
2022/01/18 05:45:35;;;;;;;48.00;42.05;;;4.00;99.90;;;;;;4992658;28;20728;-80
2022/01/18 05:48:01;;;;;;;48.38;41.17;;;4.00;99.90;;;;;;4997736;28;20487;-78
2022/01/18 05:50:27;;;;;;;49.72;42.45;;;4.00;99.90;;;;;;4994660;28;20376;-81
2022/01/18 05:52:53;;;;;;;47.78;42.08;;;4.00;99.90;;;;;;4993359;28;20490;-82
2022/01/18 05:55:20;;;;;;;45.45;40.58;;;4.00;99.90;;;;;;4992366;28;20049;-82
2022/01/18 05:57:46;;;;;;;50.83;43.45;;;4.00;99.90;;;;;;4997924;28;20045;-81
2022/01/18 06:00:20;;;;;;;48.45;41.25;;;4.00;99.90;;;;;;4994138;28;20038;-83
2022/01/18 06:08:08;;;;;;;44.90;39.80;;;4.00;99.90;;;;;;4993012;28;20049;-81
2022/01/18 06:10:35;;;;;;;44.22;39.47;;;4.00;99.90;;;;;;4994280;28;20361;-80
2022/01/18 06:13:02;;;;;;;45.53;40.30;;;3.90;99.90;;;;;;4991987;28;20045;-81
2022/01/18 06:15:32;;;;;;;43.15;38.88;;;3.90;99.90;;;;;;4992289;28;20026;-82
2022/01/18 06:17:58;;;;;;;51.90;41.45;;;3.90;99.90;;;;;;4991834;28;20038;-82
2022/01/18 06:20:25;;;;;;;44.78;39.70;;;3.90;99.90;;;;;;4991099;28;20034;-83
2022/01/18 06:22:51;;;;;;;48.20;39.00;;;3.90;99.90;;;;;;4992557;28;20042;-82
2022/01/18 06:25:22;;;;;;;48.05;41.30;;;3.90;99.90;;;;;;4992237;28;20039;-83
2022/01/18 06:27:49;;;;;;;46.97;42.17;;;3.90;99.90;;;;;;4991949;28;20030;-83
2022/01/18 06:30:15;;;;;;;52.28;46.03;;;3.90;99.90;;;;;;4991980;28;20476;-83
2022/01/18 06:32:45;;;;;;;48.92;42.78;;;3.90;99.90;;;;;;4992775;28;20045;-82
2022/01/18 06:35:13;;;;;;;44.42;39.85;;;3.90;99.90;;;;;;4992363;28;20041;-83
2022/01/18 06:37:40;;;;;;;46.20;41.40;;;3.80;99.90;;;;;;4991513;28;20050;-83
2022/01/18 06:40:11;;;;;;;46.70;41.15;;;3.80;99.90;;;;;;4989652;28;20057;-82
2022/01/18 06:42:38;;;;;;;35.28;31.20;;;3.90;99.90;;;;;;5007433;28;20049;-82
2022/01/18 06:45:05;;;;;;;46.65;41.55;;;3.80;99.90;;;;;;4995458;28;20026;-82
2022/01/18 06:47:31;;;;;;;52.70;40.53;;;3.80;99.90;;;;;;4990330;28;20030;-82
2022/01/18 06:49:57;;;;;;;48.60;41.92;;;3.80;99.90;;;;;;4996111;28;20029;-82
2022/01/18 06:52:23;;;;;;;46.17;41.25;;;3.80;99.90;;;;;;4991523;28;20413;-81
2022/01/18 06:54:49;;;;;;;46.70;40.75;;;3.80;99.90;;;;;;4992566;28;20045;-81
2022/01/18 06:57:16;;;;;;;53.28;42.35;;;3.80;99.90;;;;;;4991130;28;20035;-83
2022/01/18 06:59:42;;;;;;;45.92;41.13;;;3.80;99.90;;;;;;5000316;28;20479;-82
2022/01/18 07:02:09;;;;;;;46.33;41.58;;;3.80;99.90;;;;;;4994182;28;20403;-81
2022/01/18 07:04:35;;;;;;;49.17;43.22;;;3.80;99.90;;;;;;4998074;28;20033;-81
2022/01/18 07:07:03;;;;;;;48.65;42.95;;;3.80;99.90;;;;;;4998811;28;20038;-81
2022/01/18 07:09:29;;;;;;;48.15;40.70;;;3.80;99.90;;;;;;4992473;28;20038;-81
2022/01/18 07:11:56;;;;;;;52.25;42.17;;;3.80;99.90;;;;;;4991675;28;20054;-80
2022/01/18 07:14:23;;;;;;;51.75;44.90;;;3.80;99.90;;;;;;4991245;28;20038;-82
2022/01/18 07:16:50;;;;;;;52.67;44.65;;;3.80;99.90;;;;;;4992087;28;20364;-82
2022/01/18 07:19:16;;;;;;;49.95;44.65;;;3.80;99.90;;;;;;4991511;28;20037;-82
2022/01/18 07:21:42;;;;;;;48.45;42.80;;;3.80;99.90;;;;;;4992732;28;20049;-81
2022/01/18 07:24:17;;;;;;;50.28;43.58;;;3.80;99.90;;;;;;5010276;28;20049;-79
2022/01/18 07:26:46;;;;;;;45.30;40.80;;;3.80;99.90;;;;;;5015248;28;20041;-78
2022/01/18 07:29:15;;;;;;;56.97;43.95;;;3.80;99.90;;;;;;5015083;28;20041;-89
2022/01/18 07:31:41;;;;;;;47.42;40.35;;;3.80;99.90;;;;;;5016461;28;20034;-78
2022/01/18 07:34:08;;;;;;;49.65;44.22;;;3.80;99.90;;;;;;5016253;28;20041;-78
2022/01/18 07:36:34;;;;;;;52.83;45.80;;;3.80;99.90;;;;;;5016486;28;20034;-85
2022/01/18 07:39:00;;;;;;;48.65;43.42;;;3.80;99.90;;;;;;5015927;28;20387;-85
2022/01/18 07:41:26;;;;;;;52.15;45.85;;;4.00;99.90;;;;;;5014193;28;20045;-86
2022/01/18 07:43:53;;;;;;;55.15;48.70;;;4.10;99.90;;;;;;5010900;28;20029;-85
2022/01/18 07:46:20;;;;;;;49.95;44.67;;;4.10;99.90;;;;;;4995600;28;20042;-85
2022/01/18 07:48:46;;;;;;;51.22;45.63;;;4.20;99.90;;;;;;4996481;28;20038;-86
2022/01/18 07:51:13;;;;;;;51.67;43.50;;;4.20;99.90;;;;;;4995188;28;20046;-88
2022/01/18 07:53:39;;;;;;;50.55;45.38;;;4.10;99.90;;;;;;4994856;28;20491;-86
2022/01/18 07:56:05;;;;;;;51.55;42.55;;;4.10;99.90;;;;;;4994824;28;20053;-86
2022/01/18 07:58:31;;;;;;;48.13;43.10;;;4.10;99.90;;;;;;4998865;28;20387;-86
2022/01/18 08:01:00;;;;;;;52.80;43.92;;;4.20;99.90;;;;;;4996997;28;20053;-86
2022/01/18 08:03:28;;;;;;;55.45;47.90;;;4.20;99.90;;;;;;5013743;28;20041;-86
2022/01/18 08:05:55;;;;;;;53.85;44.15;;;4.30;99.90;;;;;;5017228;28;20036;-86
2022/01/18 08:08:22;;;;;;;45.30;40.42;;;4.20;99.90;;;;;;5021345;28;20045;-86
2022/01/18 08:10:48;;;;;;;51.25;42.95;;;4.30;99.90;;;;;;5022708;28;20034;-88
2022/01/18 08:13:15;;;;;;;46.58;41.58;;;4.20;99.90;;;;;;5018171;28;20037;-86
2022/01/18 08:15:42;;;;;;;47.92;38.85;;;4.30;99.90;;;;;;5003625;28;20026;-85
2022/01/18 08:18:14;;;;;;;48.20;39.80;;;4.30;99.90;;;;;;5004063;28;20039;-85
2022/01/18 08:20:41;;;;;;;50.55;40.17;;;4.30;99.90;;;;;;4997709;28;20038;-86
2022/01/18 08:23:07;;;;;;;49.55;39.40;;;4.30;99.90;;;;;;5003244;28;20034;-83
2022/01/18 08:25:35;;;;;;;47.58;40.22;;;4.30;99.90;;;;;;5000719;28;20050;-86
2022/01/18 08:28:02;;;;;;;51.08;41.97;;;4.40;99.90;;;;;;4996250;28;20041;-86
2022/01/18 08:30:28;;;;;;;45.80;40.83;;;4.50;99.90;;;;;;4995747;28;20030;-86
2022/01/18 08:32:55;;;;;;;60.70;45.58;;;4.50;99.90;;;;;;4996432;28;20037;-86
2022/01/18 08:35:23;;;;;;;53.42;46.75;;;4.50;99.90;;;;;;4995428;28;20042;-86
2022/01/18 08:37:50;;;;;;;52.72;47.13;;;4.50;99.90;;;;;;4994873;28;20042;-87
2022/01/18 08:40:16;;;;;;;43.33;38.03;;;4.50;99.90;;;;;;4995618;28;20038;-87
2022/01/18 08:42:44;;;;;;;43.38;38.63;;;4.50;99.90;;;;;;4995663;28;20049;-87
2022/01/18 08:45:10;;;;;;;47.10;39.97;;;4.60;99.90;;;;;;4995932;28;20034;-86
2022/01/18 08:47:37;;;;;;;48.38;39.58;;;4.80;99.90;;;;;;4995729;28;20038;-86
2022/01/18 08:50:04;;;;;;;42.47;38.40;;;5.00;99.90;;;;;;4996562;28;20046;-87
2022/01/18 08:52:30;;;;;;;41.95;37.67;;;5.10;99.90;;;;;;4995132;28;20038;-87
2022/01/18 08:54:57;;;;;;;45.10;36.10;;;5.20;99.90;;;;;;4995562;28;20031;-87
2022/01/18 08:57:23;;;;;;;36.63;33.13;;;5.30;99.90;;;;;;4994590;28;20042;-86
2022/01/18 08:59:50;;;;;;;38.88;33.50;;;5.40;99.90;;;;;;4994705;28;20042;-87
2022/01/18 09:02:16;;;;;;;41.20;33.72;;;5.60;99.90;;;;;;4995116;28;20042;-87
2022/01/18 09:04:43;;;;;;;37.28;33.28;;;5.60;99.90;;;;;;4995265;28;20035;-86
2022/01/18 09:07:10;;;;;;;38.28;32.13;;;5.60;99.90;;;;;;4995192;28;20030;-87
2022/01/18 09:09:39;;;;;;;44.63;31.90;;;5.70;99.90;;;;;;4994898;28;20041;-87
2022/01/18 09:12:11;;;;;;;35.67;30.73;;;5.70;99.90;;;;;;4995291;28;20045;-86
2022/01/18 09:14:38;;;;;;;41.83;32.22;;;5.60;99.90;;;;;;4994451;28;20054;-86
2022/01/18 09:17:05;;;;;;;45.08;33.42;;;5.70;99.90;;;;;;4995064;28;20045;-87
2022/01/18 09:19:31;;;;;;;39.35;33.55;;;5.70;99.90;;;;;;4993170;28;20041;-87
2022/01/18 09:21:59;;;;;;;38.92;32.95;;;5.90;99.90;;;;;;4995055;28;20053;-87
2022/01/18 09:24:25;;;;;;;38.15;32.25;;;6.00;99.90;;;;;;4994630;28;20424;-87
2022/01/18 09:26:53;;;;;;;48.08;35.97;;;6.00;99.90;;;;;;4998379;28;20044;-87
2022/01/18 09:29:20;;;;;;;46.38;38.53;;;6.00;99.90;;;;;;5000040;28;20034;-87
2022/01/18 09:31:46;;;;;;;41.85;33.10;;;6.10;99.90;;;;;;5001202;28;20492;-87
2022/01/18 09:34:15;;;;;;;38.10;32.15;;;6.20;99.90;;;;;;4995229;28;20041;-86
2022/01/18 09:36:42;;;;;;;35.92;31.35;;;6.30;99.90;;;;;;4993767;28;20380;-87
2022/01/18 09:39:09;;;;;;;39.38;32.28;;;6.30;99.90;;;;;;4994947;28;20037;-87
2022/01/18 09:41:39;;;;;;;40.83;34.83;;;6.40;99.90;;;;;;4994112;28;20038;-86
2022/01/18 09:44:07;;;;;;;36.53;30.35;;;6.40;99.90;;;;;;4994528;28;20031;-87
2022/01/18 09:46:33;;;;;;;40.13;31.05;;;6.40;99.90;;;;;;4993982;28;20043;-87
2022/01/18 09:49:00;;;;;;;36.30;32.50;;;6.40;99.90;;;;;;4994170;28;20034;-87
2022/01/18 09:51:28;;;;;;;39.35;30.10;;;6.60;99.90;;;;;;4993539;28;20357;-87
2022/01/18 09:53:55;;;;;;;43.38;30.92;;;6.70;99.90;;;;;;4994248;28;20041;-87
2022/01/18 09:56:22;;;;;;;39.20;31.08;;;6.70;99.90;;;;;;4992569;28;20041;-87
2022/01/18 09:58:48;;;;;;;37.47;28.67;;;6.80;99.90;;;;;;4993359;28;20041;-87
2022/01/18 10:01:15;;;;;;;41.42;27.70;;;6.80;99.90;;;;;;4994096;28;20383;-86
2022/01/18 10:03:41;;;;;;;31.30;26.65;;;6.70;99.90;;;;;;4994459;28;20464;-87
2022/01/18 10:06:10;;;;;;;31.13;24.60;;;6.80;99.90;;;;;;4994619;28;20034;-87
2022/01/18 10:08:39;;;;;;;26.25;23.13;;;6.80;99.90;;;;;;4993417;28;20061;-87
2022/01/18 10:11:15;;;;;;;28.48;23.30;;;6.90;99.90;;;;;;4994324;28;20038;-88
2022/01/18 10:13:45;;;;;;;34.55;23.88;;;7.00;99.90;;;;;;4994293;28;20046;-87
2022/01/18 10:16:18;;;;;;;29.02;22.45;;;7.10;99.90;;;;;;4992441;28;20049;-87
2022/01/18 10:18:53;;;;;;;26.10;23.38;;;7.10;99.90;;;;;;4993955;28;20483;-87
2022/01/18 10:21:28;;;;;;;33.00;21.70;;;7.10;99.90;;;;;;4994038;28;20042;-87
2022/01/18 10:24:17;;;;;;;28.25;22.88;;;7.10;99.90;;;;;;4994468;28;20054;-88
2022/01/18 10:26:45;;;;;;;23.92;18.85;;;7.00;99.90;;;;;;4993850;28;20034;-87
2022/01/18 10:29:12;;;;;;;33.08;19.92;;;7.20;99.90;;;;;;4994138;28;20030;-87
2022/01/18 10:31:56;;;;;;;24.13;18.25;;;7.30;99.90;;;;;;4994466;28;20503;-87
2022/01/18 10:34:28;;;;;;;18.23;13.15;;;7.20;99.90;;;;;;4993654;28;20038;-88
2022/01/18 10:37:11;;;;;;;13.93;10.77;;;7.20;99.90;;;;;;4993980;28;20440;-88
2022/01/18 10:39:49;;;;;;;17.00;12.80;;;7.30;99.90;;;;;;4991979;28;20041;-88
2022/01/18 10:42:42;;;;;;;13.02;9.65;;;7.40;99.90;;;;;;4994293;28;20058;-87
2022/01/18 10:45:14;;;;;;;12.32;9.80;;;7.50;99.70;;;;;;4991042;28;20034;-88
2022/01/18 10:48:13;;;;;;;15.05;9.57;;;7.60;98.90;;;;;;4975628;28;20057;-88
2022/01/18 10:50:42;;;;;;;9.73;6.63;;;7.70;98.20;;;;;;4993265;28;20383;-88
2022/01/18 10:53:19;;;;;;;10.68;7.30;;;7.60;94.80;;;;;;4993155;28;20042;-88
2022/01/18 10:55:48;;;;;;;10.82;7.93;;;7.50;95.10;;;;;;4993494;28;20530;-88
2022/01/18 10:58:17;;;;;;;10.02;7.05;;;7.60;95.60;;;;;;4994430;28;20030;-87
2022/01/18 11:00:43;;;;;;;11.35;7.03;;;7.60;95.00;;;;;;4992938;28;20037;-89
2022/01/18 11:03:12;;;;;;;9.70;6.15;;;7.60;94.30;;;;;;4992121;28;20399;-89
2022/01/18 11:05:41;;;;;;;7.75;5.78;;;7.60;93.60;;;;;;4993890;28;20034;-91
2022/01/18 11:08:07;;;;;;;10.52;5.68;;;7.60;94.00;;;;;;5006383;28;20456;-91
2022/01/18 11:10:43;;;;;;;7.03;6.32;;;7.70;93.30;;;;;;4998115;28;20022;-88
2022/01/18 11:13:23;;;;;;;8.98;4.65;;;7.70;92.60;;;;;;5013791;28;20054;-89
2022/01/18 11:15:53;;;;;;;5.78;4.10;;;7.70;91.50;;;;;;5011925;28;20025;-89
2022/01/18 11:18:30;;;;;;;7.65;5.43;;;7.70;91.30;;;;;;5011194;28;20460;-89
2022/01/18 11:20:57;;;;;;;8.43;5.88;;;7.60;91.70;;;;;;4992672;28;20035;-91
2022/01/18 11:23:24;;;;;;;10.50;5.05;;;7.70;91.90;;;;;;4994490;28;20069;-90
2022/01/18 11:25:51;;;;;;;10.32;8.05;;;7.60;91.00;;;;;;4994323;28;20030;-90
2022/01/18 11:28:18;;;;;;;10.23;6.18;;;7.60;91.60;;;;;;4993933;28;20030;-90
2022/01/18 11:30:46;;;;;;;6.95;5.68;;;7.60;91.70;;;;;;4994010;28;20026;-91
2022/01/18 11:33:15;;;;;;;6.32;5.70;;;7.70;91.40;;;;;;4993760;28;20039;-90
2022/01/18 11:36:07;;;;;;;8.63;4.72;;;7.70;90.50;;;;;;4992859;28;20069;-89
2022/01/18 11:38:50;;;;;;;7.22;5.07;;;7.70;91.00;;;;;;4995853;28;20479;-90
2022/01/18 11:41:27;;;;;;;6.25;4.63;;;7.80;91.10;;;;;;5006740;28;20026;-89
2022/01/18 11:43:55;;;;;;;8.55;4.95;;;7.70;90.20;;;;;;5012336;28;20053;-89
2022/01/18 11:46:30;;;;;;;6.00;4.72;;;7.80;91.10;;;;;;5004595;28;20038;-89
2022/01/18 11:49:06;;;;;;;6.22;3.90;;;7.90;90.70;;;;;;5002157;28;20038;-90
2022/01/18 11:51:51;;;;;;;7.93;4.95;;;7.90;90.20;;;;;;5008711;28;20030;-90
2022/01/18 11:54:28;;;;;;;9.32;4.88;;;7.90;90.70;;;;;;5013133;28;20030;-88
2022/01/18 11:56:54;;;;;;;9.48;6.05;;;7.90;91.40;;;;;;5018051;28;20026;-89
2022/01/18 11:59:26;;;;;;;12.52;7.13;;;7.90;91.70;;;;;;5018482;28;20044;-88
2022/01/18 12:01:59;;;;;;;6.75;5.72;;;7.90;92.10;;;;;;5013768;28;20045;-88
2022/01/18 12:04:51;;;;;;;9.98;4.60;;;7.90;91.20;;;;;;5012380;28;20037;-88
2022/01/18 12:07:43;;;;;;;7.18;4.72;;;7.90;91.20;;;;;;5011940;28;20038;-88
2022/01/18 12:10:33;;;;;;;8.50;3.45;;;7.90;91.20;;;;;;5018312;28;20034;-92
2022/01/18 12:13:24;;;;;;;5.15;3.22;;;7.90;89.70;;;;;;5015923;28;20054;-87
2022/01/18 12:15:55;;;;;;;5.22;3.15;;;7.90;88.70;;;;;;4991462;28;20050;-88
2022/01/18 12:18:24;;;;;;;6.03;3.03;;;7.90;88.30;;;;;;4996158;28;20031;-88
2022/01/18 12:20:53;;;;;;;6.35;3.58;;;7.90;89.60;;;;;;4996877;28;20034;-89
2022/01/18 12:23:26;;;;;;;6.18;3.38;;;7.90;90.00;;;;;;4995385;28;20042;-89
2022/01/18 12:26:10;;;;;;;7.13;3.20;;;8.00;88.80;;;;;;4996036;28;20041;-89
2022/01/18 12:34:30;;;;;;;4.53;2.35;;;7.90;87.50;;;;;;4996318;28;20034;-88
2022/01/18 12:37:08;;;;;;;3.65;3.00;;;7.90;87.50;;;;;;4997225;28;20050;-89
2022/01/18 12:44:58;;;;;;;4.10;2.63;;;7.90;88.20;;;;;;5005013;28;20100;-89
2022/01/18 12:47:25;;;;;;;3.83;2.72;;;7.90;87.60;;;;;;4999178;28;20364;-89
2022/01/18 12:49:52;;;;;;;3.03;2.20;;;7.90;87.30;;;;;;4996395;28;20463;-92
2022/01/18 12:52:18;;;;;;;5.45;3.08;;;8.00;84.90;;;;;;4996355;28;20045;-91
2022/01/18 12:54:47;;;;;;;3.60;2.97;;;8.10;84.30;;;;;;5005028;28;20038;-90
2022/01/18 12:57:14;;;;;;;4.18;2.40;;;8.10;84.30;;;;;;5007577;28;20038;-88
2022/01/18 13:00:06;;;;;;;3.10;2.80;;;8.00;84.70;;;;;;4995875;28;20046;-88
2022/01/18 13:02:33;;;;;;;7.53;2.65;;;8.00;84.90;;;;;;4995263;28;20038;-88
2022/01/18 13:05:07;;;;;;;2.88;2.05;;;8.00;84.80;;;;;;4996029;28;20038;-87
2022/01/18 13:07:52;;;;;;;3.53;2.58;;;8.10;83.80;;;;;;4994050;28;20045;-89
2022/01/18 13:10:32;;;;;;;4.82;2.53;;;8.00;85.00;;;;;;5002568;28;20038;-87
2022/01/18 13:12:59;;;;;;;2.67;2.03;;;8.00;84.20;;;;;;5003233;28;20145;-88
2022/01/18 13:15:46;;;;;;;3.47;2.10;;;8.00;83.90;;;;;;4999135;28;20383;-88
2022/01/18 13:24:05;;;;;;;1.80;1.20;;;8.10;82.90;;;;;;4995612;28;20059;-88
2022/01/18 13:26:40;;;;;;;3.92;1.33;;;8.00;81.30;;;;;;4999935;28;20038;-86
2022/01/18 13:29:32;;;;;;;2.92;1.35;;;8.00;81.20;;;;;;4995881;28;20468;-87
2022/01/18 13:32:07;;;;;;;4.35;3.88;;;7.90;80.70;;;;;;4993871;28;20046;-88
2022/01/18 13:34:36;;;;;;;3.75;1.52;;;7.90;82.40;;;;;;4994900;28;20475;-88
2022/01/18 13:37:07;;;;;;;3.63;2.43;;;7.90;82.70;;;;;;4993891;28;20042;-87
2022/01/18 13:39:39;;;;;;;2.63;1.92;;;7.90;80.90;;;;;;4994909;28;20274;-88
2022/01/18 13:42:09;;;;;;;5.28;4.07;;;7.90;81.40;;;;;;4995049;28;20038;-86
2022/01/18 13:44:36;;;;;;;1.45;1.30;;;8.00;81.00;;;;;;4995774;28;20030;-90
2022/01/18 13:47:18;;;;;;;3.00;1.88;;;7.80;79.90;;;;;;4995572;28;20034;-89
2022/01/18 13:49:45;;;;;;;0.90;0.70;;;7.80;80.20;;;;;;4994558;28;20034;-90
2022/01/18 13:52:13;;;;;;;1.85;1.15;;;7.80;80.50;;;;;;4995169;28;20050;-90
2022/01/18 13:54:52;;;;;;;1.67;0.82;;;7.80;81.10;;;;;;4993926;28;20031;-88
2022/01/18 13:57:20;;;;;;;3.08;1.20;;;7.80;78.70;;;;;;4994839;28;20380;-77
2022/01/18 13:59:49;;;;;;;2.55;1.42;;;7.70;79.90;;;;;;4993873;28;20041;-77
2022/01/18 14:02:19;;;;;;;1.20;0.93;;;7.70;80.60;;;;;;4993990;28;20030;-77
2022/01/18 14:04:48;;;;;;;3.20;0.97;;;7.80;80.90;;;;;;4993626;28;20046;-76
2022/01/18 14:07:14;;;;;;;3.58;0.90;;;7.80;80.70;;;;;;4993787;28;20285;-77
2022/01/18 14:09:40;;;;;;;2.17;1.23;;;7.70;81.80;;;;;;4993325;28;20026;-76
2022/01/18 14:12:17;;;;;;;1.38;0.73;;;7.70;81.10;;;;;;4993826;28;20038;-77
2022/01/18 14:14:44;;;;;;;1.70;1.02;;;7.70;82.40;;;;;;4993859;28;20039;-77
2022/01/18 14:17:15;;;;;;;1.33;0.98;;;7.70;81.70;;;;;;4994235;28;20031;-78
2022/01/18 14:19:43;;;;;;;1.40;1.02;;;7.60;82.10;;;;;;4993810;28;20050;-77